Time;durP1;ratioP1;P1;durP2;ratioP2;P2;SDS_P1;SDS_P2;PMS_P1;PMS_P2;Temp;Humidity;BMP_temperature;BMP_pressure;BME280_temperature;BME280_humidity;BME280_pressure;Samples;Min_cycle;Max_cycle;Signal;HPM_P1;HPM_P2
2022/01/22 00:00:41;;;;;;;12.97;5.23;;;;;;;-145.69;100.00;74067.72;5012942;28;20635;-77
2022/01/22 00:03:09;;;;;;;18.83;5.03;;;;;;;-145.69;100.00;74057.75;5011819;28;20363;-78
2022/01/22 00:05:37;;;;;;;14.37;5.20;;;;;;;-145.69;100.00;74059.75;5011725;28;20205;-77
2022/01/22 00:08:04;;;;;;;18.27;4.93;;;;;;;-145.69;100.00;74069.69;5011529;28;20204;-76
2022/01/22 00:10:32;;;;;;;9.23;4.57;;;;;;;-145.69;100.00;74069.69;5011738;28;20228;-76
2022/01/22 00:15:42;;;;;;;14.10;6.00;;;;;;;-145.69;100.00;74063.72;4990751;28;20200;-76
2022/01/22 00:18:09;;;;;;;21.67;5.37;;;;;;;-145.69;100.00;74073.69;5011354;28;20342;-76
2022/01/22 00:20:37;;;;;;;16.37;5.27;;;;;;;-145.69;100.00;74075.69;5011640;28;20278;-77
2022/01/22 00:23:04;;;;;;;13.63;5.67;;;;;;;-145.69;100.00;74071.69;5011517;28;20208;-77
2022/01/22 00:25:33;;;;;;;20.80;5.50;;;;;;;-145.69;100.00;74069.69;5011598;28;20201;-77
2022/01/22 00:28:00;;;;;;;12.57;4.97;;;;;;;-145.69;100.00;74067.72;5011224;28;20197;-77
2022/01/22 00:30:29;;;;;;;9.70;4.30;;;;;;;-145.69;100.00;74063.72;5011540;28;20303;-77
2022/01/22 00:32:56;;;;;;;13.10;4.87;;;;;;;-145.69;100.00;74065.72;5011162;28;20296;-77
2022/01/22 00:35:26;;;;;;;13.27;4.13;;;;;;;-145.69;100.00;74069.69;5011385;28;20676;-77
2022/01/22 00:37:54;;;;;;;13.80;4.17;;;;;;;-145.69;100.00;74075.69;5011384;28;20208;-77
2022/01/22 00:40:21;;;;;;;13.33;4.33;;;;;;;-145.69;100.00;74075.69;5011214;28;20228;-77
2022/01/22 00:42:50;;;;;;;12.20;4.10;;;;;;;-145.69;100.00;74077.66;5028196;28;20211;-77
2022/01/22 00:45:20;;;;;;;14.40;4.83;;;;;;;-145.69;100.00;74077.66;5030828;28;20196;-76
2022/01/22 00:47:49;;;;;;;13.57;4.80;;;;;;;-145.69;100.00;74073.69;5031138;28;20210;-77
2022/01/22 00:50:18;;;;;;;17.03;5.40;;;;;;;-145.69;100.00;74071.69;5031170;28;20207;-78
2022/01/22 00:52:47;;;;;;;17.47;5.17;;;;;;;-145.69;100.00;74069.69;5030924;28;20200;-77
2022/01/22 00:55:14;;;;;;;9.97;4.70;;;;;;;-145.69;100.00;74069.69;5030746;28;20659;-78
2022/01/22 00:57:41;;;;;;;9.73;4.17;;;;;;;-145.69;100.00;74071.69;5030794;28;20200;-77
2022/01/22 01:00:14;;;;;;;18.13;4.80;;;;;;;-145.69;100.00;74069.69;5030130;28;20328;-77
2022/01/22 01:02:44;;;;;;;11.97;5.17;;;;;;;-145.69;100.00;74071.69;5030728;28;20208;-77
2022/01/22 01:05:14;;;;;;;16.47;5.33;;;;;;;-145.69;100.00;74085.63;5030794;28;20232;-77
2022/01/22 01:07:41;;;;;;;12.47;4.80;;;;;;;-145.69;100.00;74081.66;5030659;28;20196;-77
2022/01/22 01:10:12;;;;;;;15.77;5.47;;;;;;;-145.69;100.00;74079.66;5030819;28;20212;-78
2022/01/22 01:12:40;;;;;;;15.33;5.27;;;;;;;-145.69;100.00;74077.66;5017128;28;20298;-77
2022/01/22 01:15:20;;;;;;;14.63;4.87;;;;;;;-145.69;100.00;74079.66;5010928;28;20205;-76
2022/01/22 01:17:58;;;;;;;24.17;5.90;;;;;;;-145.69;100.00;74085.63;5026250;28;20227;-77
2022/01/22 01:34:13;;;;;;;22.20;5.93;;;;;;;-145.69;100.00;74079.66;5030220;28;20199;-78
2022/01/22 01:36:40;;;;;;;14.87;5.50;;;;;;;-145.69;100.00;74081.66;5030287;28;20196;-78
2022/01/22 01:39:10;;;;;;;17.00;6.17;;;;;;;-145.69;100.00;74083.63;5030108;28;20200;-77
2022/01/22 01:41:46;;;;;;;18.60;5.80;;;;;;;-145.69;100.00;74079.66;5020290;28;20192;-77
2022/01/22 01:44:13;;;;;;;14.13;6.70;;;;;;;-145.69;100.00;74093.59;5010559;28;20205;-77
2022/01/22 01:46:45;;;;;;;13.77;6.27;;;;;;;-145.69;100.00;74085.63;5010281;28;20668;-77
2022/01/22 01:49:15;;;;;;;20.93;7.83;;;;;;;-145.69;100.00;74089.63;5010576;28;20215;-77
2022/01/22 01:51:42;;;;;;;20.40;6.30;;;;;;;-145.69;100.00;74083.63;5010366;28;20197;-77
2022/01/22 01:54:26;;;;;;;18.93;5.80;;;;;;;-145.69;100.00;74079.66;5010195;28;20757;-77
2022/01/22 01:59:39;;;;;;;20.13;5.93;;;;;;;-145.69;100.00;74075.69;5029610;28;20718;-78
2022/01/22 02:02:09;;;;;;;15.77;6.23;;;;;;;-145.69;100.00;74073.69;5030143;28;20204;-77
2022/01/22 02:04:36;;;;;;;18.93;5.83;;;;;;;-145.69;100.00;74073.69;5030666;28;20200;-77
2022/01/22 02:07:08;;;;;;;21.10;5.63;;;;;;;-145.69;100.00;74085.63;5033597;28;20200;-77
2022/01/22 02:09:37;;;;;;;10.90;5.00;;;;;;;-145.69;100.00;74075.69;5033857;28;20215;-77
2022/01/22 02:12:13;;;;;;;15.17;5.57;;;;;;;-145.69;100.00;74065.72;5020384;28;20643;-77
2022/01/22 02:25:43;;;;;;;12.87;5.43;;;;;;;-145.69;100.00;74071.69;5013346;28;20258;-77
2022/01/22 02:28:11;;;;;;;14.83;5.30;;;;;;;-145.69;100.00;74069.69;5013188;28;20678;-77
2022/01/22 02:30:42;;;;;;;13.00;5.27;;;;;;;-145.69;100.00;74065.72;5013461;28;20299;-77
2022/01/22 02:33:25;;;;;;;14.10;5.60;;;;;;;-145.69;100.00;74071.69;5013423;28;20201;-77
2022/01/22 02:35:56;;;;;;;18.50;5.70;;;;;;;-145.69;100.00;74073.69;5013169;28;20205;-77
2022/01/22 02:38:32;;;;;;;12.57;5.57;;;;;;;-145.69;100.00;74073.69;5013390;28;20211;-77
2022/01/22 02:41:02;;;;;;;15.97;5.53;;;;;;;-145.69;100.00;74069.69;5019351;28;20303;-77
2022/01/22 02:43:33;;;;;;;13.27;5.07;;;;;;;-145.69;100.00;74051.78;5032911;28;20582;-77
2022/01/22 02:46:01;;;;;;;17.53;5.33;;;;;;;-145.69;100.00;74063.72;5032805;28;20200;-77
2022/01/22 02:48:29;;;;;;;21.10;5.53;;;;;;;-145.69;100.00;74071.69;5032619;28;20432;-77
2022/01/22 02:50:55;;;;;;;17.73;6.10;;;;;;;-145.69;100.00;74077.66;5032800;28;20658;-77
2022/01/22 02:53:23;;;;;;;19.97;5.47;;;;;;;-145.69;100.00;74087.63;5032468;28;20299;-77
2022/01/22 02:55:52;;;;;;;18.37;6.47;;;;;;;-145.69;100.00;74083.63;5032550;28;20655;-77
2022/01/22 02:58:21;;;;;;;19.53;5.50;;;;;;;-145.69;100.00;74085.63;5032856;28;20687;-77
2022/01/22 03:00:48;;;;;;;15.37;6.00;;;;;;;-145.69;100.00;74085.63;5030504;28;20733;-78
2022/01/22 03:03:14;;;;;;;15.07;5.93;;;;;;;-145.69;100.00;74081.66;5032186;28;20196;-77
2022/01/22 03:05:47;;;;;;;16.87;6.07;;;;;;;-145.69;100.00;74065.72;5032307;28;20659;-77
2022/01/22 03:08:14;;;;;;;17.40;5.70;;;;;;;-145.69;100.00;74073.69;5032481;28;20204;-77
2022/01/22 03:10:49;;;;;;;13.87;6.03;;;;;;;-145.69;100.00;74073.69;5027745;28;20201;-77
2022/01/22 03:16:06;;;;;;;15.47;5.30;;;;;;;-145.69;100.00;74085.63;5041739;28;20287;-77
2022/01/22 03:18:53;;;;;;;16.03;5.87;;;;;;;-145.69;100.00;74081.66;5032064;28;20235;-77
2022/01/22 03:21:37;;;;;;;17.60;6.17;;;;;;;-145.69;100.00;74077.66;5032328;28;20228;-77
2022/01/22 03:29:35;;;;;;;16.20;6.82;;;;;;;-145.69;100.00;74081.66;5025548;28;20506;-77
2022/01/22 03:32:01;;;;;;;18.63;6.03;;;;;;;-145.69;100.00;74085.63;5032139;28;20574;-77
2022/01/22 03:34:29;;;;;;;16.93;6.00;;;;;;;-145.69;100.00;74085.63;5032195;28;20211;-77
2022/01/22 03:36:56;;;;;;;13.33;5.37;;;;;;;-145.69;100.00;74085.63;5032207;28;20253;-77
2022/01/22 03:39:23;;;;;;;19.23;5.73;;;;;;;-145.69;100.00;74083.63;5032006;28;20200;-77
2022/01/22 03:41:52;;;;;;;15.17;5.87;;;;;;;-145.69;100.00;74083.63;5031994;28;20269;-77
2022/01/22 03:44:19;;;;;;;16.87;5.57;;;;;;;-145.69;100.00;74077.66;5031731;28;20204;-77
2022/01/22 03:46:45;;;;;;;18.07;6.07;;;;;;;-145.69;100.00;74079.66;5031837;28;20204;-77
2022/01/22 03:49:16;;;;;;;13.53;5.37;;;;;;;-145.69;100.00;74077.66;5031908;28;20197;-77
2022/01/22 03:51:42;;;;;;;14.20;5.13;;;;;;;-145.69;100.00;74071.69;5031888;28;20196;-77
2022/01/22 03:54:09;;;;;;;18.47;5.60;;;;;;;-145.69;100.00;74063.72;5031751;28;20257;-77
2022/01/22 03:56:38;;;;;;;17.07;5.23;;;;;;;-145.69;100.00;74069.69;5031773;28;20202;-77
2022/01/22 03:59:06;;;;;;;15.50;5.57;;;;;;;-145.69;100.00;74071.69;5016674;28;20292;-77
2022/01/22 04:04:19;;;;;;;14.07;6.07;;;;;;;-145.69;100.00;74077.66;5019863;28;20197;-77
2022/01/22 04:07:22;;;;;;;19.67;6.30;;;;;;;-145.69;100.00;74061.72;5012125;28;20197;-77
2022/01/22 04:09:47;;;;;;;15.03;5.67;;;;;;;-145.69;100.00;74077.66;5011566;28;20287;-77
2022/01/22 04:12:16;;;;;;;21.90;5.90;;;;;;;-145.69;100.00;74079.66;5011797;28;20231;-77
2022/01/22 04:14:48;;;;;;;17.27;6.17;;;;;;;-145.69;100.00;74075.69;5011688;28;20205;-77
2022/01/22 04:17:36;;;;;;;19.00;6.40;;;;;;;-145.69;100.00;74069.69;5011716;28;20197;-77
2022/01/22 04:25:35;;;;;;;22.13;8.00;;;;;;;-145.69;100.00;74073.69;5011585;28;20204;-77
2022/01/22 04:28:02;;;;;;;23.47;7.77;;;;;;;-145.69;100.00;74073.69;5016875;28;20196;-78
2022/01/22 04:30:32;;;;;;;21.37;8.17;;;;;;;-145.69;100.00;74075.69;5031067;28;20208;-78
2022/01/22 04:33:00;;;;;;;20.67;7.87;;;;;;;-145.69;100.00;74061.72;5031671;28;20207;-78
2022/01/22 04:35:26;;;;;;;26.57;9.23;;;;;;;-145.69;100.00;74067.72;5031261;28;20227;-77
2022/01/22 04:37:53;;;;;;;21.60;8.27;;;;;;;-145.69;100.00;74069.69;5020607;28;20207;-76
2022/01/22 04:40:19;;;;;;;26.57;8.80;;;;;;;-145.69;100.00;74061.72;5011142;28;20301;-77
2022/01/22 04:42:46;;;;;;;24.70;9.23;;;;;;;-145.69;100.00;74051.78;5011214;28;20201;-77
2022/01/22 04:45:20;;;;;;;25.90;8.93;;;;;;;-145.69;100.00;74061.72;5011243;28;20296;-77
2022/01/22 04:47:56;;;;;;;23.67;9.37;;;;;;;-145.69;100.00;74057.75;5011465;28;20262;-77
2022/01/22 04:55:50;;;;;;;25.57;8.97;;;;;;;-145.69;100.00;74057.75;5011112;28;20220;-78
2022/01/22 04:58:17;;;;;;;29.37;10.23;;;;;;;-145.69;100.00;74061.72;5018715;28;20597;-77
2022/01/22 05:00:46;;;;;;;29.90;9.70;;;;;;;-145.69;100.00;74057.75;5030725;28;20224;-76
2022/01/22 05:03:15;;;;;;;33.57;9.80;;;;;;;-145.69;100.00;74059.75;5030470;28;20200;-77
2022/01/22 05:05:42;;;;;;;28.73;9.63;;;;;;;-145.69;100.00;74051.78;5030662;28;20207;-76
2022/01/22 05:08:11;;;;;;;29.57;9.90;;;;;;;-145.69;100.00;74049.78;5030459;28;20204;-77
2022/01/22 05:10:39;;;;;;;33.92;14.38;;;;;;;-145.69;100.00;74041.81;5026974;28;20939;-77
2022/01/22 05:13:05;;;;;;;29.80;11.67;;;;;;;-145.69;100.00;74049.78;5030381;28;20659;-77
2022/01/22 05:15:32;;;;;;;33.90;10.33;;;;;;;-145.69;100.00;74049.78;5030318;28;20285;-77
2022/01/22 05:17:59;;;;;;;51.10;11.93;;;;;;;-145.69;100.00;74045.81;5030154;28;20592;-77
2022/01/22 05:20:28;;;;;;;34.57;11.37;;;;;;;-145.69;100.00;74041.81;5030292;28;20624;-76
2022/01/22 05:23:00;;;;;;;42.47;12.10;;;;;;;-145.69;100.00;74039.84;5030500;28;20208;-77
2022/01/22 05:25:32;;;;;;;43.57;12.13;;;;;;;-145.69;100.00;74055.75;5030727;28;20219;-76
2022/01/22 05:28:17;;;;;;;45.73;12.67;;;;;;;-145.69;100.00;74065.72;5025269;28;20200;-76
2022/01/22 05:31:00;;;;;;;41.90;12.00;;;;;;;-145.69;100.00;74063.72;5010428;28;20201;-77
2022/01/22 05:38:57;;;;;;;61.43;15.00;;;;;;;-145.69;100.00;74077.66;5009971;28;20269;-77
2022/01/22 05:41:23;;;;;;;56.57;14.43;;;;;;;-145.69;100.00;74081.66;5010013;28;20235;-77
2022/01/22 05:43:50;;;;;;;67.03;16.77;;;;;;;-145.69;100.00;74081.66;5010515;28;20265;-77
2022/01/22 05:46:16;;;;;;;67.57;15.83;;;;;;;-145.69;100.00;74089.63;5010486;28;20563;-76
2022/01/22 05:48:46;;;;;;;70.00;15.97;;;;;;;-145.69;100.00;74085.63;5010317;28;20208;-76
2022/01/22 05:51:15;;;;;;;72.77;15.67;;;;;;;-145.69;100.00;74089.63;5010533;28;20192;-77
2022/01/22 05:53:54;;;;;;;60.70;16.30;;;;;;;-145.69;100.00;74091.59;5010040;28;20201;-77
2022/01/22 06:01:48;;;;;;;58.27;15.73;;;;;;;-145.69;100.00;74081.66;5029806;28;20705;-76
2022/01/22 06:04:15;;;;;;;71.33;16.53;;;;;;;-145.69;100.00;74087.63;5029815;28;20196;-77
2022/01/22 06:06:43;;;;;;;75.90;17.73;;;;;;;-145.69;100.00;74085.63;5029708;28;20207;-76
2022/01/22 06:09:10;;;;;;;68.27;16.63;;;;;;;-145.69;100.00;74095.59;5029535;28;20211;-76
2022/01/22 06:11:51;;;;;;;81.03;16.13;;;;;;;-145.69;100.00;74097.56;5029905;28;20268;-76
2022/01/22 06:14:18;;;;;;;69.60;18.17;;;;;;;-145.69;100.00;74097.56;5029772;28;20443;-77
2022/01/22 06:16:44;;;;;;;74.37;18.00;;;;;;;-145.69;100.00;74089.63;5029566;28;20670;-77
2022/01/22 06:19:11;;;;;;;82.17;17.67;;;;;;;-145.69;100.00;74087.63;5028865;28;20349;-77
2022/01/22 06:21:37;;;;;;;71.97;17.83;;;;;;;-145.69;100.00;74083.63;5029470;28;20228;-76
2022/01/22 06:24:06;;;;;;;83.50;19.30;;;;;;;-145.69;100.00;74085.63;5029607;28;20200;-77
2022/01/22 06:26:35;;;;;;;79.43;18.37;;;;;;;-145.69;100.00;74077.66;5029570;28;20196;-77
2022/01/22 06:29:01;;;;;;;90.00;19.27;;;;;;;-145.69;100.00;74073.69;5013574;28;20232;-77
2022/01/22 06:31:28;;;;;;;77.00;17.33;;;;;;;-145.69;100.00;74077.66;5009980;28;20197;-76
2022/01/22 06:33:54;;;;;;;71.73;17.23;;;;;;;-145.69;100.00;74071.69;5009712;28;20201;-76
2022/01/22 06:36:21;;;;;;;84.03;18.53;;;;;;;-145.69;100.00;74081.66;5009810;28;20204;-76
2022/01/22 06:38:48;;;;;;;81.73;19.10;;;;;;;-145.69;100.00;74079.66;5009762;28;20205;-76
2022/01/22 06:43:59;;;;;;;81.97;18.30;;;;;;;-145.69;100.00;74081.66;5009407;28;20204;-77
2022/01/22 06:46:26;;;;;;;64.90;18.43;;;;;;;-145.69;100.00;74085.63;5009615;28;20201;-77
2022/01/22 06:48:52;;;;;;;71.97;18.70;;;;;;;-145.69;100.00;74083.63;5009716;28;20204;-77
2022/01/22 06:51:22;;;;;;;87.37;18.47;;;;;;;-145.69;100.00;74089.63;5011432;28;20212;-77
2022/01/22 06:53:49;;;;;;;82.17;19.20;;;;;;;-145.69;100.00;74093.59;5012904;28;20230;-77
2022/01/22 06:56:20;;;;;;;76.67;20.17;;;;;;;-145.69;100.00;74091.59;5012754;28;20201;-77
2022/01/22 06:58:47;;;;;;;90.17;20.23;;;;;;;-145.69;100.00;74089.63;5026152;28;20196;-77
2022/01/22 07:01:13;;;;;;;104.27;19.83;;;;;;;-145.69;100.00;74093.59;5032589;28;20228;-77
2022/01/22 07:03:41;;;;;;;82.20;19.27;;;;;;;-145.69;100.00;74097.56;5032603;28;20227;-77
2022/01/22 07:06:08;;;;;;;93.23;21.37;;;;;;;-145.69;100.00;74095.59;5032489;28;20204;-77
2022/01/22 07:08:34;;;;;;;90.47;21.40;;;;;;;-145.69;100.00;74097.56;5030523;28;20658;-76
2022/01/22 07:11:01;;;;;;;97.40;21.57;;;;;;;-145.69;100.00;74101.56;5030694;28;20200;-77
2022/01/22 07:13:29;;;;;;;103.40;22.10;;;;;;;-145.69;100.00;74097.56;5032440;28;20204;-76
2022/01/22 07:15:55;;;;;;;86.87;21.57;;;;;;;-145.69;100.00;74097.56;5032353;28;20205;-76
2022/01/22 07:18:23;;;;;;;102.33;20.93;;;;;;;-145.69;100.00;74089.63;5032115;28;20235;-76
2022/01/22 07:20:51;;;;;;;114.10;23.23;;;;;;;-145.69;100.00;74091.59;5032081;28;20709;-77
2022/01/22 07:23:21;;;;;;;97.63;19.97;;;;;;;-145.69;100.00;74093.59;5031964;28;20675;-76
2022/01/22 07:25:47;;;;;;;96.77;23.47;;;;;;;-145.69;100.00;74093.59;5032652;28;20204;-76
2022/01/22 07:28:15;;;;;;;130.17;22.80;;;;;;;-145.69;100.00;74095.59;5020659;28;20533;-76
2022/01/22 07:30:44;;;;;;;113.73;22.47;;;;;;;-145.69;100.00;74089.63;5012420;28;20250;-77
2022/01/22 07:33:12;;;;;;;117.40;22.93;;;;;;;-145.69;100.00;74089.63;5012172;28;20586;-77
2022/01/22 07:35:39;;;;;;;119.37;22.70;;;;;;;-145.69;100.00;74089.63;5012223;28;20201;-76
2022/01/22 07:38:06;;;;;;;107.03;22.90;;;;;;;-145.69;100.00;74087.63;5012041;28;20559;-76
2022/01/22 07:40:32;;;;;;;129.97;24.20;;;;;;;-145.69;100.00;74089.63;5012281;28;20223;-77
2022/01/22 07:42:59;;;;;;;113.07;23.23;;;;;;;-145.69;100.00;74089.63;5012135;28;20236;-77
2022/01/22 07:45:26;;;;;;;121.53;21.47;;;;;;;-145.69;100.00;74081.66;5012386;28;20209;-77
2022/01/22 07:47:54;;;;;;;124.40;25.00;;;;;;;-145.69;100.00;74079.66;5012173;28;20655;-76
2022/01/22 07:50:20;;;;;;;98.97;22.53;;;;;;;-145.69;100.00;74065.72;5012046;28;20204;-76
2022/01/22 07:52:47;;;;;;;154.60;34.78;;;;;;;-145.69;100.00;74067.72;5011353;28;20435;-76
2022/01/22 07:55:15;;;;;;;128.00;25.53;;;;;;;-145.69;100.00;74071.69;5011873;28;20660;-76
2022/01/22 07:57:42;;;;;;;112.10;21.63;;;;;;;-145.69;100.00;74061.72;5013094;28;20200;-76
2022/01/22 08:00:10;;;;;;;127.13;23.93;;;;;;;-145.69;100.00;74071.69;5011944;28;20621;-76
2022/01/22 08:02:37;;;;;;;123.97;23.13;;;;;;;-145.69;100.00;74067.72;5011009;28;20310;-76
2022/01/22 08:05:06;;;;;;;111.00;24.23;;;;;;;-145.69;100.00;74067.72;5011798;28;20201;-77
2022/01/22 08:07:32;;;;;;;118.80;24.23;;;;;;;-145.69;100.00;74061.72;5011930;28;20282;-76
2022/01/22 08:09:58;;;;;;;108.03;23.70;;;;;;;-145.69;100.00;74063.72;5011846;28;20212;-76
2022/01/22 08:12:25;;;;;;;102.30;23.10;;;;;;;-145.69;100.00;74071.69;5011682;28;20213;-76
2022/01/22 08:14:53;;;;;;;110.57;23.17;;;;;;;-145.69;100.00;74077.66;5011798;28;20200;-77
2022/01/22 08:17:19;;;;;;;98.17;22.60;;;;;;;-145.69;100.00;74077.66;5011473;28;20647;-77
2022/01/22 08:19:48;;;;;;;91.40;21.40;;;;;;;-145.69;100.00;74075.69;5011526;28;20189;-77
2022/01/22 08:22:16;;;;;;;91.37;21.83;;;;;;;-145.69;100.00;74079.66;5011547;28;20689;-77
2022/01/22 08:24:42;;;;;;;119.37;29.43;;;;;;;-145.69;100.00;74077.66;5011792;28;20267;-76
2022/01/22 08:27:19;;;;;;;91.53;22.37;;;;;;;-145.69;100.00;74075.69;5015786;28;20192;-77
2022/01/22 08:29:45;;;;;;;89.67;21.93;;;;;;;-145.69;100.00;74079.66;5031217;28;20730;-77
2022/01/22 08:32:31;;;;;;;76.57;21.37;;;;;;;-145.69;100.00;74073.69;5031089;28;20659;-77
2022/01/22 08:37:43;;;;;;;75.37;20.40;;;;;;;-145.69;100.00;74081.66;5031253;28;20199;-77
2022/01/22 08:40:11;;;;;;;78.45;19.52;;;;;;;-145.69;100.00;74073.69;5030905;28;20092;-76
2022/01/22 08:42:40;;;;;;;70.30;19.83;;;;;;;-145.69;100.00;74069.69;5030954;28;20228;-76
2022/01/22 08:45:07;;;;;;;60.87;18.73;;;;;;;-145.69;100.00;74071.69;5031262;28;20567;-76
2022/01/22 08:47:34;;;;;;;59.00;18.30;;;;;;;-145.69;100.00;74069.69;5030822;28;20287;-78
2022/01/22 08:50:00;;;;;;;56.90;18.03;;;;;;;-145.69;100.00;74055.75;5031065;28;20212;-76
2022/01/22 08:52:31;;;;;;;59.47;17.90;;;;;;;-145.69;100.00;74055.75;5030993;28;20613;-76
2022/01/22 08:55:02;;;;;;;49.30;17.07;;;;;;;-145.69;100.00;74057.75;5030885;28;20222;-75
2022/01/22 08:57:29;;;;;;;57.47;18.93;;;;;;;-145.69;100.00;74041.81;5024871;28;20197;-76
2022/01/22 08:59:56;;;;;;;74.80;22.37;;;;;;;-145.69;100.00;74043.81;5010887;28;20201;-76
2022/01/22 09:02:23;;;;;;;52.10;17.87;;;;;;;-145.69;100.00;74041.81;5011832;28;20221;-76
2022/01/22 09:04:51;;;;;;;49.00;16.07;;;;;;;-145.69;100.00;74039.84;5030524;28;20196;-76
2022/01/22 09:07:18;;;;;;;49.53;16.00;;;;;;;-145.69;100.00;74033.84;5030553;28;20208;-77
2022/01/22 09:09:44;;;;;;;47.70;15.80;;;;;;;-145.69;100.00;74033.84;5030258;28;20215;-76
2022/01/22 09:12:12;;;;;;;49.33;14.53;;;;;;;-145.69;100.00;74039.84;5030623;28;20200;-77
2022/01/22 09:14:42;;;;;;;33.90;13.90;;;;;;;-145.69;100.00;74039.84;5029542;28;20208;-76
2022/01/22 09:17:09;;;;;;;39.40;14.13;;;;;;;-145.69;100.00;74023.91;5030383;28;20199;-76
2022/01/22 09:19:37;;;;;;;36.73;14.97;;;;;;;-145.69;100.00;74033.84;5099947;27;20597;-78
2022/01/22 09:22:09;;;;;;;40.87;13.83;;;;;;;-145.69;100.00;74033.84;5134113;27;20686;-80
2022/01/22 09:24:39;;;;;;;34.40;14.17;;;;;;;-145.69;100.00;74037.84;5134193;27;20196;-79
2022/01/22 09:27:07;;;;;;;28.63;13.40;;;;;;;-145.69;100.00;74035.84;5099366;27;20692;-75
2022/01/22 09:29:36;;;;;;;41.50;14.00;;;;;;;-145.69;100.00;74019.91;5020775;28;20216;-76
2022/01/22 09:32:04;;;;;;;30.40;13.33;;;;;;;-145.69;100.00;74029.88;5030073;28;20667;-76
2022/01/22 09:34:30;;;;;;;34.70;12.70;;;;;;;-145.69;100.00;74017.94;5028495;28;20540;-76
2022/01/22 09:36:57;;;;;;;29.77;11.30;;;;;;;-145.69;100.00;74025.91;5030447;28;20212;-76
2022/01/22 09:39:23;;;;;;;32.73;11.20;;;;;;;-145.69;100.00;74049.78;5029970;28;20567;-76
2022/01/22 09:41:50;;;;;;;32.43;13.27;;;;;;;-145.69;100.00;74049.78;5030072;28;20223;-76
2022/01/22 09:44:16;;;;;;;30.90;12.70;;;;;;;-145.69;100.00;74039.84;5030006;28;20200;-75
2022/01/22 09:46:46;;;;;;;36.93;12.70;;;;;;;-145.69;100.00;74033.84;5029992;28;20211;-76
2022/01/22 09:49:13;;;;;;;33.60;12.70;;;;;;;-145.69;100.00;74033.84;5029913;28;20243;-76
2022/01/22 09:51:40;;;;;;;36.13;12.23;;;;;;;-145.69;100.00;74041.81;5029962;28;20196;-75
2022/01/22 09:54:06;;;;;;;40.70;12.03;;;;;;;-145.69;100.00;74037.84;5030007;28;20196;-77
2022/01/22 09:56:33;;;;;;;36.03;12.73;;;;;;;-145.69;100.00;74035.84;5030061;28;20204;-76
2022/01/22 09:59:00;;;;;;;31.93;11.87;;;;;;;-145.69;100.00;74041.81;5029954;28;20334;-77
2022/01/22 10:01:29;;;;;;;31.23;11.83;;;;;;;-145.69;100.00;74035.84;5029837;28;20200;-76
2022/01/22 10:03:59;;;;;;;27.67;10.83;;;;;;;-145.69;100.00;74055.75;5029888;28;20208;-77
2022/01/22 10:06:27;;;;;;;26.10;11.07;;;;;;;-145.69;100.00;74057.75;5011254;28;20536;-76
2022/01/22 10:09:06;;;;;;;33.80;12.33;;;;;;;-145.69;100.00;74047.78;5010041;28;20583;-77
2022/01/22 10:11:34;;;;;;;27.33;11.50;;;;;;;-145.69;100.00;74051.78;5010109;28;20205;-76
2022/01/22 10:14:01;;;;;;;32.17;13.33;;;;;;;-145.69;100.00;74055.75;5009824;28;20613;-76
2022/01/22 10:16:30;;;;;;;33.77;12.23;;;;;;;-145.69;100.00;74027.88;5009935;28;20201;-77
2022/01/22 10:19:18;;;;;;;28.17;12.10;;;;;;;-145.69;100.00;74033.84;5009669;28;20707;-78
2022/01/22 10:21:49;;;;;;;26.73;12.83;;;;;;;-145.69;100.00;74053.78;5009710;28;20682;-77
2022/01/22 10:24:36;;;;;;;35.40;11.73;;;;;;;-145.69;100.00;74027.88;5009926;28;20205;-78
2022/01/22 10:27:23;;;;;;;29.67;11.40;;;;;;;-145.69;100.00;74007.97;5012611;28;20205;-78
2022/01/22 10:29:52;;;;;;;28.53;11.80;;;;;;;-145.69;100.00;74019.91;5013007;28;20265;-79
2022/01/22 10:32:23;;;;;;;26.73;11.43;;;;;;;-145.69;100.00;74009.97;5011351;28;20258;-78
2022/01/22 10:35:06;;;;;;;26.93;11.00;;;;;;;-145.69;100.00;74013.94;5018396;28;20200;-78
2022/01/22 10:37:33;;;;;;;32.73;11.33;;;;;;;-145.69;100.00;74017.94;5032048;28;20199;-79
2022/01/22 10:40:25;;;;;;;33.27;11.47;;;;;;;-145.69;100.00;73998.03;5032978;28;20200;-78
2022/01/22 10:42:55;;;;;;;32.00;10.83;;;;;;;-145.69;100.00;73990.06;5032722;28;20255;-78
2022/01/22 10:45:27;;;;;;;34.60;11.60;;;;;;;-145.69;100.00;74004.00;5030884;28;20230;-79
2022/01/22 10:48:21;;;;;;;33.37;11.13;;;;;;;-145.69;100.00;74000.00;5030844;28;20203;-79
2022/01/22 10:51:04;;;;;;;24.10;10.33;;;;;;;-145.69;100.00;73998.03;5030937;28;20200;-79
2022/01/22 10:53:38;;;;;;;27.80;10.87;;;;;;;-145.69;100.00;74005.97;5030344;28;20207;-79
2022/01/22 10:56:06;;;;;;;35.70;11.30;;;;;;;-145.69;100.00;73990.06;5029335;28;20542;-79
2022/01/22 10:58:36;;;;;;;32.80;11.23;;;;;;;-145.69;100.00;73974.13;5031209;28;20208;-78
2022/01/22 11:01:06;;;;;;;30.60;11.70;;;;;;;-145.69;100.00;73978.09;5030848;28;20208;-79
2022/01/22 11:03:40;;;;;;;23.37;10.47;;;;;;;-145.69;100.00;73986.06;5014398;28;20231;-78
2022/01/22 11:06:25;;;;;;;27.60;11.70;;;;;;;-145.69;100.00;73988.06;5013277;28;20196;-80
2022/01/22 11:09:00;;;;;;;33.87;12.20;;;;;;;-145.69;100.00;73964.16;5012598;28;20261;-79
2022/01/22 11:11:26;;;;;;;28.70;11.33;;;;;;;-145.69;100.00;73972.13;5012790;28;20200;-79
2022/01/22 11:13:53;;;;;;;37.40;12.23;;;;;;;-145.69;100.00;73950.22;5016072;28;20284;-79
2022/01/22 11:16:20;;;;;;;26.87;11.03;;;;;;;-145.69;100.00;73940.28;5012835;28;20201;-80
2022/01/22 11:18:50;;;;;;;32.53;11.00;;;;;;;-145.69;100.00;73914.38;5012025;28;20244;-78
2022/01/22 11:21:21;;;;;;;25.53;10.90;;;;;;;-145.69;100.00;73890.50;5012802;28;20223;-79
2022/01/22 11:23:50;;;;;;;22.47;10.40;;;;;;;-145.69;100.00;73854.66;5011823;28;20324;-78
2022/01/22 11:26:17;;;;;;;23.40;10.03;;;;;;;-145.69;100.00;73834.75;5010370;28;20205;-77
2022/01/22 11:28:49;;;;;;;21.43;8.93;;;;;;;-145.69;100.00;73822.81;5011556;28;20229;-78
2022/01/22 11:31:22;;;;;;;23.33;9.23;;;;;;;-145.69;100.00;73860.63;5011830;28;20204;-77
2022/01/22 11:33:50;;;;;;;27.13;9.73;;;;;;;-145.69;100.00;73838.72;5012120;28;20205;-78
2022/01/22 11:36:23;;;;;;;21.37;8.97;;;;;;;-145.69;100.00;73812.84;5011597;28;20292;-78
2022/01/22 11:38:54;;;;;;;18.47;8.13;;;;;;;-145.69;100.00;73786.97;5010783;28;20548;-78
2022/01/22 11:41:23;;;;;;;25.60;8.40;;;;;;;-145.69;100.00;73826.78;5011241;28;20197;-78
2022/01/22 11:44:04;;;;;;;22.50;8.90;;;;;;;-145.69;100.00;73842.72;5010974;28;20236;-78
2022/01/22 11:46:36;;;;;;;23.00;8.30;;;;;;;-145.69;100.00;73826.78;5011675;28;20204;-77
2022/01/22 11:49:22;;;;;;;22.83;9.10;;;;;;;-145.69;100.00;73834.75;5011935;28;20201;-78
2022/01/22 11:51:53;;;;;;;21.27;8.23;;;;;;;-145.69;100.00;73844.69;5011844;28;20205;-77
2022/01/22 11:54:22;;;;;;;22.70;9.57;;;;;;;-145.69;100.00;73874.56;5011092;28;20209;-76
2022/01/22 11:56:54;;;;;;;24.30;10.17;;;;;;;-145.69;100.00;73894.47;5012219;28;20571;-78
2022/01/22 11:59:30;;;;;;;30.73;11.20;;;;;;;-145.69;100.00;73886.50;5012099;28;20240;-78
2022/01/22 12:02:03;;;;;;;26.13;11.27;;;;;;;-145.69;100.00;73884.53;5012150;28;20268;-78
2022/01/22 12:04:46;;;;;;;25.33;11.67;;;;;;;-145.69;100.00;73852.66;5018741;28;20586;-78
2022/01/22 12:07:19;;;;;;;25.50;10.23;;;;;;;-145.69;100.00;73854.66;5031664;28;20293;-80
2022/01/22 12:10:17;;;;;;;24.47;9.73;;;;;;;-145.69;100.00;73874.56;5031649;28;20204;-80
2022/01/22 12:15:57;;;;;;;21.20;9.77;;;;;;;-145.69;100.00;73878.56;5029900;28;20223;-80
2022/01/22 12:18:54;;;;;;;26.27;9.30;;;;;;;-145.69;100.00;73858.63;5031119;28;20267;-79
2022/01/22 12:21:35;;;;;;;27.47;11.10;;;;;;;-145.69;100.00;73828.78;5030912;28;20211;-80